sensor_id;sensor_type;location;lat;lon;timestamp;temperature;humidity
2409;DHT22;8463;48.094;7.970;2023-09-08T00:01:36;21.60;1.00
2409;DHT22;8463;48.094;7.970;2023-09-08T00:06:29;21.60;1.00
2409;DHT22;8463;48.094;7.970;2023-09-08T00:08:54;21.60;1.00
2409;DHT22;8463;48.094;7.970;2023-09-08T00:11:20;21.50;1.00
2409;DHT22;8463;48.094;7.970;2023-09-08T00:13:47;21.40;1.00
2409;DHT22;8463;48.094;7.970;2023-09-08T00:16:15;21.40;1.00
2409;DHT22;8463;48.094;7.970;2023-09-08T00:18:44;21.40;1.00
2409;DHT22;8463;48.094;7.970;2023-09-08T00:21:12;21.40;1.00
2409;DHT22;8463;48.094;7.970;2023-09-08T00:23:38;21.20;1.00
2409;DHT22;8463;48.094;7.970;2023-09-08T00:28:31;21.10;1.00
2409;DHT22;8463;48.094;7.970;2023-09-08T00:33:25;21.00;1.00
2409;DHT22;8463;48.094;7.970;2023-09-08T00:38:18;20.80;1.00
2409;DHT22;8463;48.094;7.970;2023-09-08T00:40:44;20.90;1.00
2409;DHT22;8463;48.094;7.970;2023-09-08T00:43:10;21.00;1.00
2409;DHT22;8463;48.094;7.970;2023-09-08T00:45:41;21.00;1.00
2409;DHT22;8463;48.094;7.970;2023-09-08T00:48:08;21.00;1.00
2409;DHT22;8463;48.094;7.970;2023-09-08T00:50:39;21.00;1.00
2409;DHT22;8463;48.094;7.970;2023-09-08T00:53:06;21.00;1.00
2409;DHT22;8463;48.094;7.970;2023-09-08T00:55:32;21.00;1.00
2409;DHT22;8463;48.094;7.970;2023-09-08T00:58:01;21.00;1.00
2409;DHT22;8463;48.094;7.970;2023-09-08T01:00:27;20.90;1.00
2409;DHT22;8463;48.094;7.970;2023-09-08T01:05:19;20.90;1.00
2409;DHT22;8463;48.094;7.970;2023-09-08T01:07:46;21.00;1.00
2409;DHT22;8463;48.094;7.970;2023-09-08T01:10:13;21.00;1.00
2409;DHT22;8463;48.094;7.970;2023-09-08T01:15:06;21.10;1.00
2409;DHT22;8463;48.094;7.970;2023-09-08T01:20:25;21.00;1.00
2409;DHT22;8463;48.094;7.970;2023-09-08T01:25:52;20.90;1.00
2409;DHT22;8463;48.094;7.970;2023-09-08T01:28:23;20.90;1.00
2409;DHT22;8463;48.094;7.970;2023-09-08T01:30:50;20.90;1.00
2409;DHT22;8463;48.094;7.970;2023-09-08T01:33:17;20.90;1.00
2409;DHT22;8463;48.094;7.970;2023-09-08T01:35:43;20.80;1.00
2409;DHT22;8463;48.094;7.970;2023-09-08T01:38:08;20.60;1.00
2409;DHT22;8463;48.094;7.970;2023-09-08T01:40:34;20.60;1.00
2409;DHT22;8463;48.094;7.970;2023-09-08T01:43:05;20.60;1.00
2409;DHT22;8463;48.094;7.970;2023-09-08T01:45:36;20.70;1.00
2409;DHT22;8463;48.094;7.970;2023-09-08T01:48:02;20.70;1.00
2409;DHT22;8463;48.094;7.970;2023-09-08T01:50:27;20.70;1.00
2409;DHT22;8463;48.094;7.970;2023-09-08T01:52:53;20.60;1.00
2409;DHT22;8463;48.094;7.970;2023-09-08T01:55:19;20.60;1.00
2409;DHT22;8463;48.094;7.970;2023-09-08T01:57:45;20.50;1.00
2409;DHT22;8463;48.094;7.970;2023-09-08T02:00:18;20.50;1.00
2409;DHT22;8463;48.094;7.970;2023-09-08T02:02:43;20.50;1.00
2409;DHT22;8463;48.094;7.970;2023-09-08T02:07:35;20.50;1.00
2409;DHT22;8463;48.094;7.970;2023-09-08T02:10:01;20.50;1.00
2409;DHT22;8463;48.094;7.970;2023-09-08T02:12:26;20.50;1.00
2409;DHT22;8463;48.094;7.970;2023-09-08T02:14:52;20.50;1.00
2409;DHT22;8463;48.094;7.970;2023-09-08T02:19:44;20.60;1.00
2409;DHT22;8463;48.094;7.970;2023-09-08T02:22:10;20.60;1.00
2409;DHT22;8463;48.094;7.970;2023-09-08T02:27:04;20.50;1.00
2409;DHT22;8463;48.094;7.970;2023-09-08T02:29:30;20.50;1.00
2409;DHT22;8463;48.094;7.970;2023-09-08T02:31:56;20.50;1.00
2409;DHT22;8463;48.094;7.970;2023-09-08T02:34:22;20.40;1.00
2409;DHT22;8463;48.094;7.970;2023-09-08T02:36:47;20.50;1.00
2409;DHT22;8463;48.094;7.970;2023-09-08T02:39:13;20.50;1.00
2409;DHT22;8463;48.094;7.970;2023-09-08T02:44:05;20.50;1.00
2409;DHT22;8463;48.094;7.970;2023-09-08T02:46:31;20.50;1.00
2409;DHT22;8463;48.094;7.970;2023-09-08T02:48:57;20.40;1.00
2409;DHT22;8463;48.094;7.970;2023-09-08T02:51:22;20.40;1.00
2409;DHT22;8463;48.094;7.970;2023-09-08T02:56:14;20.40;1.00
2409;DHT22;8463;48.094;7.970;2023-09-08T02:58:40;20.30;1.00
2409;DHT22;8463;48.094;7.970;2023-09-08T03:01:16;20.30;1.00
2409;DHT22;8463;48.094;7.970;2023-09-08T03:03:44;20.20;1.00
2409;DHT22;8463;48.094;7.970;2023-09-08T03:06:14;20.20;1.00
2409;DHT22;8463;48.094;7.970;2023-09-08T03:11:06;20.10;1.00
2409;DHT22;8463;48.094;7.970;2023-09-08T03:13:34;20.10;1.00
2409;DHT22;8463;48.094;7.970;2023-09-08T03:16:08;20.00;1.00
2409;DHT22;8463;48.094;7.970;2023-09-08T03:18:34;19.90;1.00
2409;DHT22;8463;48.094;7.970;2023-09-08T03:21:05;19.90;1.00
2409;DHT22;8463;48.094;7.970;2023-09-08T03:23:47;19.80;1.00
2409;DHT22;8463;48.094;7.970;2023-09-08T03:26:13;19.70;1.00
2409;DHT22;8463;48.094;7.970;2023-09-08T03:28:42;19.70;1.00
2409;DHT22;8463;48.094;7.970;2023-09-08T03:31:08;19.70;1.00
2409;DHT22;8463;48.094;7.970;2023-09-08T03:33:36;19.80;1.00
2409;DHT22;8463;48.094;7.970;2023-09-08T03:36:01;19.80;1.00
2409;DHT22;8463;48.094;7.970;2023-09-08T03:40:53;19.90;1.00
2409;DHT22;8463;48.094;7.970;2023-09-08T03:43:19;19.80;1.00
2409;DHT22;8463;48.094;7.970;2023-09-08T03:45:45;19.80;1.00
2409;DHT22;8463;48.094;7.970;2023-09-08T03:48:11;19.80;1.00
2409;DHT22;8463;48.094;7.970;2023-09-08T03:50:36;19.80;1.00
2409;DHT22;8463;48.094;7.970;2023-09-08T03:53:02;19.80;1.00
2409;DHT22;8463;48.094;7.970;2023-09-08T03:57:57;19.70;1.00
2409;DHT22;8463;48.094;7.970;2023-09-08T04:00:23;19.70;1.00
2409;DHT22;8463;48.094;7.970;2023-09-08T04:02:51;19.70;1.00
2409;DHT22;8463;48.094;7.970;2023-09-08T04:05:17;19.70;1.00
2409;DHT22;8463;48.094;7.970;2023-09-08T04:07:46;19.60;1.00
2409;DHT22;8463;48.094;7.970;2023-09-08T04:10:14;19.60;1.00
2409;DHT22;8463;48.094;7.970;2023-09-08T04:12:42;19.60;1.00
2409;DHT22;8463;48.094;7.970;2023-09-08T04:15:08;19.70;1.00
2409;DHT22;8463;48.094;7.970;2023-09-08T04:17:38;19.70;1.00
2409;DHT22;8463;48.094;7.970;2023-09-08T04:20:04;19.70;1.00
2409;DHT22;8463;48.094;7.970;2023-09-08T04:22:31;19.70;1.00
2409;DHT22;8463;48.094;7.970;2023-09-08T04:25:03;19.70;1.00
2409;DHT22;8463;48.094;7.970;2023-09-08T04:27:28;19.70;1.00
2409;DHT22;8463;48.094;7.970;2023-09-08T04:29:54;19.80;1.00
2409;DHT22;8463;48.094;7.970;2023-09-08T04:32:20;19.70;1.00
2409;DHT22;8463;48.094;7.970;2023-09-08T04:34:45;19.80;1.00
2409;DHT22;8463;48.094;7.970;2023-09-08T04:39:43;19.60;1.00
2409;DHT22;8463;48.094;7.970;2023-09-08T04:42:10;19.60;1.00
2409;DHT22;8463;48.094;7.970;2023-09-08T04:44:35;19.60;1.00
2409;DHT22;8463;48.094;7.970;2023-09-08T04:47:04;19.60;1.00
2409;DHT22;8463;48.094;7.970;2023-09-08T04:52:54;19.50;1.00
2409;DHT22;8463;48.094;7.970;2023-09-08T04:55:19;19.50;1.00
2409;DHT22;8463;48.094;7.970;2023-09-08T04:57:47;19.50;1.00
2409;DHT22;8463;48.094;7.970;2023-09-08T05:00:13;19.50;1.00
2409;DHT22;8463;48.094;7.970;2023-09-08T05:12:45;19.80;1.00
2409;DHT22;8463;48.094;7.970;2023-09-08T05:15:10;20.10;1.00
2409;DHT22;8463;48.094;7.970;2023-09-08T05:17:40;20.20;1.00
2409;DHT22;8463;48.094;7.970;2023-09-08T05:20:06;20.20;1.00
2409;DHT22;8463;48.094;7.970;2023-09-08T05:22:32;20.20;1.00
2409;DHT22;8463;48.094;7.970;2023-09-08T05:25:00;20.30;1.00
2409;DHT22;8463;48.094;7.970;2023-09-08T05:29:52;20.30;1.00
2409;DHT22;8463;48.094;7.970;2023-09-08T05:32:18;20.20;1.00
2409;DHT22;8463;48.094;7.970;2023-09-08T05:34:44;20.30;1.00
2409;DHT22;8463;48.094;7.970;2023-09-08T05:37:12;20.30;1.00
2409;DHT22;8463;48.094;7.970;2023-09-08T05:39:41;20.20;1.00
2409;DHT22;8463;48.094;7.970;2023-09-08T05:42:07;20.20;1.00
2409;DHT22;8463;48.094;7.970;2023-09-08T05:44:35;20.10;1.00
2409;DHT22;8463;48.094;7.970;2023-09-08T05:47:03;20.20;1.00
2409;DHT22;8463;48.094;7.970;2023-09-08T05:49:28;20.20;1.00
2409;DHT22;8463;48.094;7.970;2023-09-08T05:51:54;20.30;1.00
2409;DHT22;8463;48.094;7.970;2023-09-08T05:54:20;20.40;1.00
2409;DHT22;8463;48.094;7.970;2023-09-08T05:56:47;20.60;1.00
2409;DHT22;8463;48.094;7.970;2023-09-08T05:59:13;20.70;1.00
2409;DHT22;8463;48.094;7.970;2023-09-08T06:01:39;20.80;1.00
2409;DHT22;8463;48.094;7.970;2023-09-08T06:04:09;20.90;1.00
2409;DHT22;8463;48.094;7.970;2023-09-08T06:06:35;21.00;1.00
2409;DHT22;8463;48.094;7.970;2023-09-08T06:09:01;21.20;1.00
2409;DHT22;8463;48.094;7.970;2023-09-08T06:17:21;21.50;1.00
2409;DHT22;8463;48.094;7.970;2023-09-08T06:19:46;21.50;1.00
2409;DHT22;8463;48.094;7.970;2023-09-08T06:22:12;21.50;1.00
2409;DHT22;8463;48.094;7.970;2023-09-08T06:24:38;21.50;1.00
2409;DHT22;8463;48.094;7.970;2023-09-08T06:29:29;21.50;1.00
2409;DHT22;8463;48.094;7.970;2023-09-08T06:32:01;21.60;1.00
2409;DHT22;8463;48.094;7.970;2023-09-08T06:36:55;21.80;1.00
2409;DHT22;8463;48.094;7.970;2023-09-08T06:39:21;21.80;1.00
2409;DHT22;8463;48.094;7.970;2023-09-08T06:44:12;21.90;1.00
2409;DHT22;8463;48.094;7.970;2023-09-08T06:46:38;22.00;1.00
2409;DHT22;8463;48.094;7.970;2023-09-08T06:49:04;22.10;1.00
2409;DHT22;8463;48.094;7.970;2023-09-08T06:51:29;22.10;1.00
2409;DHT22;8463;48.094;7.970;2023-09-08T06:53:56;22.30;1.00
2409;DHT22;8463;48.094;7.970;2023-09-08T06:56:22;22.60;1.00
2409;DHT22;8463;48.094;7.970;2023-09-08T06:58:48;22.60;1.00
2409;DHT22;8463;48.094;7.970;2023-09-08T07:01:13;22.90;1.00
2409;DHT22;8463;48.094;7.970;2023-09-08T07:03:39;22.90;1.00
2409;DHT22;8463;48.094;7.970;2023-09-08T07:08:31;23.10;1.00
2409;DHT22;8463;48.094;7.970;2023-09-08T07:10:58;23.20;1.00
2409;DHT22;8463;48.094;7.970;2023-09-08T07:13:24;23.30;1.00
2409;DHT22;8463;48.094;7.970;2023-09-08T07:15:49;23.20;1.00
2409;DHT22;8463;48.094;7.970;2023-09-08T07:18:15;23.50;1.00
2409;DHT22;8463;48.094;7.970;2023-09-08T07:20:41;23.70;1.00
2409;DHT22;8463;48.094;7.970;2023-09-08T07:23:07;23.80;1.00
2409;DHT22;8463;48.094;7.970;2023-09-08T07:25:37;24.00;1.00
2409;DHT22;8463;48.094;7.970;2023-09-08T07:28:03;24.00;1.00
2409;DHT22;8463;48.094;7.970;2023-09-08T07:30:31;24.10;1.00
2409;DHT22;8463;48.094;7.970;2023-09-08T07:33:03;24.30;1.00
2409;DHT22;8463;48.094;7.970;2023-09-08T07:35:30;24.50;1.00
2409;DHT22;8463;48.094;7.970;2023-09-08T07:37:55;24.70;1.00
2409;DHT22;8463;48.094;7.970;2023-09-08T07:40:21;24.90;1.00
2409;DHT22;8463;48.094;7.970;2023-09-08T07:42:47;24.90;1.00
2409;DHT22;8463;48.094;7.970;2023-09-08T07:45:12;24.80;1.00
2409;DHT22;8463;48.094;7.970;2023-09-08T07:47:41;25.00;1.00
2409;DHT22;8463;48.094;7.970;2023-09-08T07:50:22;25.20;1.00
2409;DHT22;8463;48.094;7.970;2023-09-08T07:52:53;25.30;1.00
2409;DHT22;8463;48.094;7.970;2023-09-08T07:55:20;25.30;1.00
2409;DHT22;8463;48.094;7.970;2023-09-08T07:57:50;25.40;1.00
2409;DHT22;8463;48.094;7.970;2023-09-08T08:00:16;25.60;1.00
2409;DHT22;8463;48.094;7.970;2023-09-08T08:02:46;25.80;1.00
2409;DHT22;8463;48.094;7.970;2023-09-08T08:05:18;25.90;1.00
2409;DHT22;8463;48.094;7.970;2023-09-08T08:07:47;25.90;1.00
2409;DHT22;8463;48.094;7.970;2023-09-08T08:10:14;25.60;1.00
2409;DHT22;8463;48.094;7.970;2023-09-08T08:12:43;25.50;1.00
2409;DHT22;8463;48.094;7.970;2023-09-08T08:15:10;25.60;1.00
2409;DHT22;8463;48.094;7.970;2023-09-08T08:17:36;25.70;1.00
2409;DHT22;8463;48.094;7.970;2023-09-08T08:20:05;25.80;1.00
2409;DHT22;8463;48.094;7.970;2023-09-08T08:22:47;25.80;1.00
2409;DHT22;8463;48.094;7.970;2023-09-08T08:25:12;25.80;1.00
2409;DHT22;8463;48.094;7.970;2023-09-08T08:27:39;25.90;1.00
2409;DHT22;8463;48.094;7.970;2023-09-08T08:30:06;25.90;1.00
2409;DHT22;8463;48.094;7.970;2023-09-08T08:32:33;25.90;1.00
2409;DHT22;8463;48.094;7.970;2023-09-08T08:34:59;26.00;1.00
2409;DHT22;8463;48.094;7.970;2023-09-08T08:37:27;26.20;1.00
2409;DHT22;8463;48.094;7.970;2023-09-08T08:39:53;26.20;1.00
2409;DHT22;8463;48.094;7.970;2023-09-08T08:42:21;26.10;1.00
2409;DHT22;8463;48.094;7.970;2023-09-08T08:44:48;26.20;1.00
2409;DHT22;8463;48.094;7.970;2023-09-08T08:47:14;26.40;1.00
2409;DHT22;8463;48.094;7.970;2023-09-08T08:49:52;26.50;1.00
2409;DHT22;8463;48.094;7.970;2023-09-08T08:52:19;26.40;1.00
2409;DHT22;8463;48.094;7.970;2023-09-08T08:54:51;26.30;1.00
2409;DHT22;8463;48.094;7.970;2023-09-08T08:57:17;26.40;1.00
2409;DHT22;8463;48.094;7.970;2023-09-08T08:59:43;26.30;1.00
2409;DHT22;8463;48.094;7.970;2023-09-08T09:02:12;26.30;1.00
2409;DHT22;8463;48.094;7.970;2023-09-08T09:04:49;26.30;1.00
2409;DHT22;8463;48.094;7.970;2023-09-08T09:07:15;26.20;1.00
2409;DHT22;8463;48.094;7.970;2023-09-08T09:09:41;26.10;1.00
2409;DHT22;8463;48.094;7.970;2023-09-08T09:12:07;26.10;1.00
2409;DHT22;8463;48.094;7.970;2023-09-08T09:14:45;26.10;1.00
2409;DHT22;8463;48.094;7.970;2023-09-08T09:17:14;26.30;1.00
2409;DHT22;8463;48.094;7.970;2023-09-08T09:19:40;26.10;1.00
2409;DHT22;8463;48.094;7.970;2023-09-08T09:22:06;26.20;1.00
2409;DHT22;8463;48.094;7.970;2023-09-08T09:24:35;26.40;1.00
2409;DHT22;8463;48.094;7.970;2023-09-08T09:27:09;26.70;1.00
2409;DHT22;8463;48.094;7.970;2023-09-08T09:29:47;26.70;1.00
2409;DHT22;8463;48.094;7.970;2023-09-08T09:32:13;26.80;1.00
2409;DHT22;8463;48.094;7.970;2023-09-08T09:34:52;26.90;1.00
2409;DHT22;8463;48.094;7.970;2023-09-08T09:37:19;27.00;1.00
2409;DHT22;8463;48.094;7.970;2023-09-08T09:39:54;27.30;1.00
2409;DHT22;8463;48.094;7.970;2023-09-08T09:42:27;27.30;1.00
2409;DHT22;8463;48.094;7.970;2023-09-08T09:44:53;27.40;1.00
2409;DHT22;8463;48.094;7.970;2023-09-08T09:47:19;27.40;1.00
2409;DHT22;8463;48.094;7.970;2023-09-08T09:49:51;27.40;1.00
2409;DHT22;8463;48.094;7.970;2023-09-08T09:52:26;27.50;1.00
2409;DHT22;8463;48.094;7.970;2023-09-08T09:54:53;27.60;1.00
2409;DHT22;8463;48.094;7.970;2023-09-08T09:57:22;27.70;1.00
2409;DHT22;8463;48.094;7.970;2023-09-08T09:59:49;27.80;1.00
2409;DHT22;8463;48.094;7.970;2023-09-08T10:02:18;27.90;1.00
2409;DHT22;8463;48.094;7.970;2023-09-08T10:04:50;28.00;1.00
2409;DHT22;8463;48.094;7.970;2023-09-08T10:07:17;28.20;1.00
2409;DHT22;8463;48.094;7.970;2023-09-08T10:09:43;28.30;1.00
2409;DHT22;8463;48.094;7.970;2023-09-08T10:12:09;28.30;1.00
2409;DHT22;8463;48.094;7.970;2023-09-08T10:14:41;28.50;1.00
2409;DHT22;8463;48.094;7.970;2023-09-08T10:17:15;28.50;1.00
2409;DHT22;8463;48.094;7.970;2023-09-08T10:19:45;28.50;1.00
2409;DHT22;8463;48.094;7.970;2023-09-08T10:22:20;28.50;1.00
2409;DHT22;8463;48.094;7.970;2023-09-08T10:24:50;28.50;1.00
2409;DHT22;8463;48.094;7.970;2023-09-08T10:27:17;28.60;1.00
2409;DHT22;8463;48.094;7.970;2023-09-08T10:29:47;28.70;1.00
2409;DHT22;8463;48.094;7.970;2023-09-08T10:32:18;28.70;1.00
2409;DHT22;8463;48.094;7.970;2023-09-08T10:34:46;28.70;1.00
2409;DHT22;8463;48.094;7.970;2023-09-08T10:37:23;29.20;1.00
2409;DHT22;8463;48.094;7.970;2023-09-08T10:39:51;29.20;1.00
2409;DHT22;8463;48.094;7.970;2023-09-08T10:47:19;29.20;1.00
2409;DHT22;8463;48.094;7.970;2023-09-08T10:49:45;29.40;1.00
2409;DHT22;8463;48.094;7.970;2023-09-08T10:52:12;29.20;1.00
2409;DHT22;8463;48.094;7.970;2023-09-08T10:57:21;29.20;1.00
2409;DHT22;8463;48.094;7.970;2023-09-08T11:02:39;29.40;1.00
2409;DHT22;8463;48.094;7.970;2023-09-08T11:05:10;29.40;1.00
2409;DHT22;8463;48.094;7.970;2023-09-08T11:07:37;29.70;1.00
2409;DHT22;8463;48.094;7.970;2023-09-08T11:10:04;29.80;1.00
2409;DHT22;8463;48.094;7.970;2023-09-08T11:12:31;29.80;1.00
2409;DHT22;8463;48.094;7.970;2023-09-08T11:15:04;29.70;1.00
2409;DHT22;8463;48.094;7.970;2023-09-08T11:17:31;29.80;1.00
2409;DHT22;8463;48.094;7.970;2023-09-08T11:19:57;29.90;1.00
2409;DHT22;8463;48.094;7.970;2023-09-08T11:22:32;29.90;1.00
2409;DHT22;8463;48.094;7.970;2023-09-08T11:27:23;30.00;1.00
2409;DHT22;8463;48.094;7.970;2023-09-08T11:29:52;30.00;1.00
2409;DHT22;8463;48.094;7.970;2023-09-08T11:32:24;30.10;1.00
2409;DHT22;8463;48.094;7.970;2023-09-08T11:34:52;30.20;1.00
2409;DHT22;8463;48.094;7.970;2023-09-08T11:39:45;30.30;1.00
2409;DHT22;8463;48.094;7.970;2023-09-08T11:42:15;30.20;1.00
2409;DHT22;8463;48.094;7.970;2023-09-08T11:44:42;30.40;1.00
2409;DHT22;8463;48.094;7.970;2023-09-08T11:47:10;30.40;1.00
2409;DHT22;8463;48.094;7.970;2023-09-08T11:49:37;30.60;1.00
2409;DHT22;8463;48.094;7.970;2023-09-08T11:52:04;30.80;1.00
2409;DHT22;8463;48.094;7.970;2023-09-08T11:54:32;30.70;1.00
2409;DHT22;8463;48.094;7.970;2023-09-08T11:57:03;30.60;1.00
2409;DHT22;8463;48.094;7.970;2023-09-08T11:59:31;30.70;1.00
2409;DHT22;8463;48.094;7.970;2023-09-08T12:02:01;30.70;1.00
2409;DHT22;8463;48.094;7.970;2023-09-08T12:04:26;30.60;1.00
2409;DHT22;8463;48.094;7.970;2023-09-08T12:06:54;30.80;1.00
2409;DHT22;8463;48.094;7.970;2023-09-08T12:09:30;30.90;1.00
2409;DHT22;8463;48.094;7.970;2023-09-08T12:12:00;30.80;1.00
2409;DHT22;8463;48.094;7.970;2023-09-08T12:14:30;31.30;1.00
2409;DHT22;8463;48.094;7.970;2023-09-08T12:17:08;31.20;1.00
2409;DHT22;8463;48.094;7.970;2023-09-08T12:19:34;30.90;1.00
2409;DHT22;8463;48.094;7.970;2023-09-08T12:22:08;30.90;1.00
2409;DHT22;8463;48.094;7.970;2023-09-08T12:24:57;30.90;1.00
2409;DHT22;8463;48.094;7.970;2023-09-08T12:27:23;31.00;1.00
2409;DHT22;8463;48.094;7.970;2023-09-08T12:29:59;31.30;1.00
2409;DHT22;8463;48.094;7.970;2023-09-08T12:32:29;31.70;1.00
2409;DHT22;8463;48.094;7.970;2023-09-08T12:34:56;31.60;1.00
2409;DHT22;8463;48.094;7.970;2023-09-08T12:37:24;31.50;1.00
2409;DHT22;8463;48.094;7.970;2023-09-08T12:39:53;31.60;1.00
2409;DHT22;8463;48.094;7.970;2023-09-08T12:42:19;31.70;1.00
2409;DHT22;8463;48.094;7.970;2023-09-08T12:44:46;31.60;1.00
2409;DHT22;8463;48.094;7.970;2023-09-08T12:47:15;31.70;1.00
2409;DHT22;8463;48.094;7.970;2023-09-08T12:49:43;31.90;1.00
2409;DHT22;8463;48.094;7.970;2023-09-08T12:52:08;32.10;1.00
2409;DHT22;8463;48.094;7.970;2023-09-08T12:54:41;32.30;1.00
2409;DHT22;8463;48.094;7.970;2023-09-08T12:57:08;32.10;1.00
2409;DHT22;8463;48.094;7.970;2023-09-08T12:59:35;32.10;1.00
2409;DHT22;8463;48.094;7.970;2023-09-08T13:02:00;32.20;1.00
2409;DHT22;8463;48.094;7.970;2023-09-08T13:04:26;32.40;1.00
2409;DHT22;8463;48.094;7.970;2023-09-08T13:06:53;32.30;1.00
2409;DHT22;8463;48.094;7.970;2023-09-08T13:09:19;32.70;1.00
2409;DHT22;8463;48.094;7.970;2023-09-08T13:11:45;32.70;1.00
2409;DHT22;8463;48.094;7.970;2023-09-08T13:14:11;33.00;1.00
2409;DHT22;8463;48.094;7.970;2023-09-08T13:16:37;33.50;1.00
2409;DHT22;8463;48.094;7.970;2023-09-08T13:19:03;33.70;1.00
2409;DHT22;8463;48.094;7.970;2023-09-08T13:21:37;34.00;1.00
2409;DHT22;8463;48.094;7.970;2023-09-08T13:24:06;34.40;1.00
2409;DHT22;8463;48.094;7.970;2023-09-08T13:26:32;34.60;1.00
2409;DHT22;8463;48.094;7.970;2023-09-08T13:28:58;34.70;1.00
2409;DHT22;8463;48.094;7.970;2023-09-08T13:31:23;34.70;1.00
2409;DHT22;8463;48.094;7.970;2023-09-08T13:33:49;34.20;1.00
2409;DHT22;8463;48.094;7.970;2023-09-08T13:36:20;34.20;1.00
2409;DHT22;8463;48.094;7.970;2023-09-08T13:38:46;34.10;1.00
2409;DHT22;8463;48.094;7.970;2023-09-08T13:41:12;34.40;1.00
2409;DHT22;8463;48.094;7.970;2023-09-08T13:43:38;34.60;1.00
2409;DHT22;8463;48.094;7.970;2023-09-08T13:46:09;34.80;1.00
2409;DHT22;8463;48.094;7.970;2023-09-08T13:48:35;34.90;1.00
2409;DHT22;8463;48.094;7.970;2023-09-08T13:51:06;35.10;1.00
2409;DHT22;8463;48.094;7.970;2023-09-08T13:53:32;35.30;1.00
2409;DHT22;8463;48.094;7.970;2023-09-08T13:55:58;35.40;1.00
2409;DHT22;8463;48.094;7.970;2023-09-08T13:58:24;35.60;1.00
2409;DHT22;8463;48.094;7.970;2023-09-08T14:00:50;35.60;1.00
2409;DHT22;8463;48.094;7.970;2023-09-08T14:03:19;35.50;1.00
2409;DHT22;8463;48.094;7.970;2023-09-08T14:05:44;35.60;1.00
2409;DHT22;8463;48.094;7.970;2023-09-08T14:08:10;35.60;1.00
2409;DHT22;8463;48.094;7.970;2023-09-08T14:10:36;35.50;1.00
2409;DHT22;8463;48.094;7.970;2023-09-08T14:13:01;35.50;1.00
2409;DHT22;8463;48.094;7.970;2023-09-08T14:15:33;35.50;1.00
2409;DHT22;8463;48.094;7.970;2023-09-08T14:17:59;35.40;1.00
2409;DHT22;8463;48.094;7.970;2023-09-08T14:20:24;35.30;1.00
2409;DHT22;8463;48.094;7.970;2023-09-08T14:22:50;35.30;1.00
2409;DHT22;8463;48.094;7.970;2023-09-08T14:25:18;35.00;1.00
2409;DHT22;8463;48.094;7.970;2023-09-08T14:27:44;35.10;1.00
2409;DHT22;8463;48.094;7.970;2023-09-08T14:30:10;35.10;1.00
2409;DHT22;8463;48.094;7.970;2023-09-08T14:32:35;35.30;1.00
2409;DHT22;8463;48.094;7.970;2023-09-08T14:35:01;35.20;1.00
2409;DHT22;8463;48.094;7.970;2023-09-08T14:37:33;35.40;1.00
2409;DHT22;8463;48.094;7.970;2023-09-08T14:39:59;35.60;1.00
2409;DHT22;8463;48.094;7.970;2023-09-08T14:42:24;35.70;1.00
2409;DHT22;8463;48.094;7.970;2023-09-08T14:44:50;35.90;1.00
2409;DHT22;8463;48.094;7.970;2023-09-08T14:47:22;35.70;1.00
2409;DHT22;8463;48.094;7.970;2023-09-08T14:49:47;35.70;1.00
2409;DHT22;8463;48.094;7.970;2023-09-08T14:52:13;35.80;1.00
2409;DHT22;8463;48.094;7.970;2023-09-08T14:54:42;36.00;1.00
2409;DHT22;8463;48.094;7.970;2023-09-08T14:57:08;36.00;1.00
2409;DHT22;8463;48.094;7.970;2023-09-08T14:59:33;36.00;1.00
2409;DHT22;8463;48.094;7.970;2023-09-08T15:01:59;35.90;1.00
2409;DHT22;8463;48.094;7.970;2023-09-08T15:04:25;35.90;1.00
2409;DHT22;8463;48.094;7.970;2023-09-08T15:06:50;35.90;1.00
2409;DHT22;8463;48.094;7.970;2023-09-08T15:09:16;36.00;1.00
2409;DHT22;8463;48.094;7.970;2023-09-08T15:11:42;36.00;1.00
2409;DHT22;8463;48.094;7.970;2023-09-08T15:14:07;36.00;1.00
2409;DHT22;8463;48.094;7.970;2023-09-08T15:16:35;36.00;1.00
2409;DHT22;8463;48.094;7.970;2023-09-08T15:19:00;35.90;1.00
2409;DHT22;8463;48.094;7.970;2023-09-08T15:21:26;35.90;1.00
2409;DHT22;8463;48.094;7.970;2023-09-08T15:23:55;35.70;1.00
2409;DHT22;8463;48.094;7.970;2023-09-08T15:26:22;35.70;1.00
2409;DHT22;8463;48.094;7.970;2023-09-08T15:28:48;35.60;1.00
2409;DHT22;8463;48.094;7.970;2023-09-08T15:31:16;35.50;1.00
2409;DHT22;8463;48.094;7.970;2023-09-08T15:33:42;35.60;1.00
2409;DHT22;8463;48.094;7.970;2023-09-08T15:36:13;35.60;1.00
2409;DHT22;8463;48.094;7.970;2023-09-08T15:38:40;35.70;1.00
2409;DHT22;8463;48.094;7.970;2023-09-08T15:43:46;35.80;1.00
2409;DHT22;8463;48.094;7.970;2023-09-08T15:46:13;35.80;1.00
2409;DHT22;8463;48.094;7.970;2023-09-08T15:48:38;35.60;1.00
2409;DHT22;8463;48.094;7.970;2023-09-08T15:51:07;35.20;1.00
2409;DHT22;8463;48.094;7.970;2023-09-08T15:53:34;35.20;1.00
2409;DHT22;8463;48.094;7.970;2023-09-08T15:56:00;35.10;1.00
2409;DHT22;8463;48.094;7.970;2023-09-08T15:58:28;34.90;1.00
2409;DHT22;8463;48.094;7.970;2023-09-08T16:00:54;34.80;1.00
2409;DHT22;8463;48.094;7.970;2023-09-08T16:03:19;34.80;1.00
2409;DHT22;8463;48.094;7.970;2023-09-08T16:05:45;34.80;1.00
2409;DHT22;8463;48.094;7.970;2023-09-08T16:08:11;34.70;1.00
2409;DHT22;8463;48.094;7.970;2023-09-08T16:10:37;34.70;1.00
2409;DHT22;8463;48.094;7.970;2023-09-08T16:13:03;34.70;1.00
2409;DHT22;8463;48.094;7.970;2023-09-08T16:15:28;34.80;1.00
2409;DHT22;8463;48.094;7.970;2023-09-08T16:17:54;34.50;1.00
2409;DHT22;8463;48.094;7.970;2023-09-08T16:20:20;34.50;1.00
2409;DHT22;8463;48.094;7.970;2023-09-08T16:22:49;34.50;1.00
2409;DHT22;8463;48.094;7.970;2023-09-08T16:25:15;34.40;1.00
2409;DHT22;8463;48.094;7.970;2023-09-08T16:27:41;34.40;1.00
2409;DHT22;8463;48.094;7.970;2023-09-08T16:30:07;34.40;1.00
2409;DHT22;8463;48.094;7.970;2023-09-08T16:32:32;34.40;1.00
2409;DHT22;8463;48.094;7.970;2023-09-08T16:34:58;34.30;1.00
2409;DHT22;8463;48.094;7.970;2023-09-08T16:37:25;34.10;1.00
2409;DHT22;8463;48.094;7.970;2023-09-08T16:39:51;34.00;1.00
2409;DHT22;8463;48.094;7.970;2023-09-08T16:42:17;34.00;1.00
2409;DHT22;8463;48.094;7.970;2023-09-08T16:44:43;34.00;1.00
2409;DHT22;8463;48.094;7.970;2023-09-08T16:47:12;33.80;1.00
2409;DHT22;8463;48.094;7.970;2023-09-08T16:49:38;33.80;1.00
2409;DHT22;8463;48.094;7.970;2023-09-08T16:52:04;33.80;1.00
2409;DHT22;8463;48.094;7.970;2023-09-08T16:54:30;33.70;1.00
2409;DHT22;8463;48.094;7.970;2023-09-08T16:56:55;33.60;1.00
2409;DHT22;8463;48.094;7.970;2023-09-08T16:59:21;33.40;1.00
2409;DHT22;8463;48.094;7.970;2023-09-08T17:01:48;32.90;1.00
2409;DHT22;8463;48.094;7.970;2023-09-08T17:04:14;32.50;1.00
2409;DHT22;8463;48.094;7.970;2023-09-08T17:06:39;31.80;1.00
2409;DHT22;8463;48.094;7.970;2023-09-08T17:09:07;31.30;1.00
2409;DHT22;8463;48.094;7.970;2023-09-08T17:11:37;30.90;1.00
2409;DHT22;8463;48.094;7.970;2023-09-08T17:14:06;29.70;1.00
2409;DHT22;8463;48.094;7.970;2023-09-08T17:16:32;29.40;1.00
2409;DHT22;8463;48.094;7.970;2023-09-08T17:18:57;28.60;1.00
2409;DHT22;8463;48.094;7.970;2023-09-08T17:21:23;28.50;1.00
2409;DHT22;8463;48.094;7.970;2023-09-08T17:23:49;28.40;1.00
2409;DHT22;8463;48.094;7.970;2023-09-08T17:26:23;28.50;1.00
2409;DHT22;8463;48.094;7.970;2023-09-08T17:28:50;28.80;1.00
2409;DHT22;8463;48.094;7.970;2023-09-08T17:33:42;28.80;1.00
2409;DHT22;8463;48.094;7.970;2023-09-08T17:36:08;28.80;1.00
2409;DHT22;8463;48.094;7.970;2023-09-08T17:38:33;28.70;1.00
2409;DHT22;8463;48.094;7.970;2023-09-08T17:40:59;28.60;1.00
2409;DHT22;8463;48.094;7.970;2023-09-08T17:43:25;28.70;1.00
2409;DHT22;8463;48.094;7.970;2023-09-08T17:48:19;28.90;1.00
2409;DHT22;8463;48.094;7.970;2023-09-08T17:50:47;28.80;1.00
2409;DHT22;8463;48.094;7.970;2023-09-08T17:53:13;28.80;1.00
2409;DHT22;8463;48.094;7.970;2023-09-08T17:55:39;28.80;1.00